Time;durP1;ratioP1;P1;durP2;ratioP2;P2;SDS_P1;SDS_P2;PMS_P1;PMS_P2;Temp;Humidity;BMP_temperature;BMP_pressure;BME280_temperature;BME280_humidity;BME280_pressure;Samples;Min_cycle;Max_cycle;Signal;HPM_P1;HPM_P2
2022/11/08 00:03:00;;;;;;;10.43;5.63;;;9.70;99.90;;;;;;5038038;28;20412;-81
2022/11/08 00:14:42;;;;;;;8.00;5.80;;;9.50;99.90;;;;;;5038178;28;20361;-80
2022/11/08 00:17:29;;;;;;;9.40;5.83;;;9.60;99.90;;;;;;5042374;28;20399;-81
2022/11/08 00:20:13;;;;;;;7.77;4.77;;;9.60;99.90;;;;;;5027748;28;20382;-78
2022/11/08 00:22:57;;;;;;;10.70;7.23;;;9.60;99.90;;;;;;5042509;28;20405;-80
2022/11/08 00:25:42;;;;;;;7.47;5.93;;;9.60;99.90;;;;;;5027469;28;20416;-81
2022/11/08 00:28:26;;;;;;;5.57;4.97;;;9.60;99.90;;;;;;5042170;28;20399;-81
2022/11/08 00:31:10;;;;;;;8.63;4.47;;;9.50;99.90;;;;;;5042699;28;20443;-80
2022/11/08 00:33:54;;;;;;;8.50;5.87;;;9.40;99.90;;;;;;5041989;28;20433;-80
2022/11/08 00:36:38;;;;;;;5.73;5.13;;;9.40;99.90;;;;;;5043136;28;20537;-81
2022/11/08 00:39:22;;;;;;;9.87;6.37;;;9.50;99.90;;;;;;5022313;28;20391;-81
2022/11/08 00:42:06;;;;;;;6.33;5.10;;;9.40;99.90;;;;;;5024643;28;20401;-78
2022/11/08 00:44:51;;;;;;;6.07;5.47;;;9.40;99.90;;;;;;5011176;28;20442;-78
2022/11/08 00:47:35;;;;;;;5.93;5.27;;;9.40;99.90;;;;;;5025957;28;20388;-78
2022/11/08 00:50:19;;;;;;;7.37;5.57;;;9.40;99.90;;;;;;5026115;28;20536;-78
2022/11/08 00:53:03;;;;;;;9.23;5.87;;;9.40;99.90;;;;;;5026574;28;20411;-79
2022/11/08 00:55:47;;;;;;;7.50;4.90;;;9.30;99.90;;;;;;5011905;28;20415;-78
2022/11/08 00:58:31;;;;;;;5.90;5.30;;;9.30;99.90;;;;;;5012045;28;20426;-78
2022/11/08 01:01:18;;;;;;;7.20;5.80;;;9.20;99.90;;;;;;5023005;28;20447;-79
2022/11/08 01:04:02;;;;;;;9.57;5.00;;;9.10;99.90;;;;;;5021445;28;20400;-79
2022/11/08 01:06:47;;;;;;;5.90;4.90;;;9.00;99.90;;;;;;5019998;28;20518;-79
2022/11/08 01:09:31;;;;;;;8.63;6.07;;;9.10;99.90;;;;;;5020368;28;20931;-79
2022/11/08 01:12:15;;;;;;;5.57;5.03;;;9.00;99.90;;;;;;5020788;28;20476;-80
2022/11/08 01:14:59;;;;;;;7.03;5.93;;;8.90;99.90;;;;;;5020340;28;20883;-80
2022/11/08 01:17:43;;;;;;;6.20;5.60;;;8.90;99.90;;;;;;5023180;28;20391;-78
2022/11/08 01:20:27;;;;;;;8.80;4.80;;;8.80;99.90;;;;;;5026915;28;20383;-78
2022/11/08 01:23:12;;;;;;;12.33;4.63;;;8.80;99.90;;;;;;5023038;28;20443;-80
2022/11/08 01:26:03;;;;;;;7.63;6.13;;;8.80;99.90;;;;;;5021958;28;20442;-80
2022/11/08 01:28:47;;;;;;;8.03;4.17;;;8.80;99.90;;;;;;5021223;28;20388;-80
2022/11/08 01:31:32;;;;;;;10.40;6.20;;;8.70;99.90;;;;;;5021062;28;20388;-80
2022/11/08 01:34:16;;;;;;;5.30;4.80;;;8.70;99.90;;;;;;5020999;28;20756;-79
2022/11/08 01:37:00;;;;;;;5.27;4.53;;;8.70;99.90;;;;;;5020524;28;20361;-80
2022/11/08 01:39:44;;;;;;;4.80;4.40;;;8.70;99.90;;;;;;5020594;28;20399;-80
2022/11/08 01:42:29;;;;;;;7.63;5.33;;;8.60;99.90;;;;;;5020839;28;20365;-80
2022/11/08 01:45:13;;;;;;;7.00;4.97;;;8.60;99.90;;;;;;5021386;28;20447;-79
2022/11/08 01:47:57;;;;;;;5.50;4.40;;;8.50;99.90;;;;;;5020900;28;20430;-80
2022/11/08 01:50:42;;;;;;;8.37;4.50;;;8.40;99.90;;;;;;5020114;28;20465;-80
2022/11/08 01:53:28;;;;;;;15.63;5.00;;;8.40;99.90;;;;;;5020802;28;20367;-80
2022/11/08 01:56:14;;;;;;;7.03;5.67;;;8.40;99.90;;;;;;5020289;28;20865;-79
2022/11/08 01:59:01;;;;;;;6.30;4.63;;;8.30;99.90;;;;;;5020432;28;20858;-80
2022/11/08 02:01:46;;;;;;;6.90;5.40;;;8.30;99.90;;;;;;5020558;28;20496;-80
2022/11/08 02:04:32;;;;;;;4.40;4.00;;;8.30;99.90;;;;;;5020275;28;20376;-79
2022/11/08 02:07:16;;;;;;;6.50;4.60;;;8.30;99.90;;;;;;5019942;28;20897;-80
2022/11/08 02:10:02;;;;;;;7.90;5.10;;;8.30;99.90;;;;;;5019433;28;20376;-80
2022/11/08 02:12:46;;;;;;;6.70;4.93;;;8.20;99.90;;;;;;5005258;28;20374;-80
2022/11/08 02:15:30;;;;;;;7.23;5.67;;;8.30;99.90;;;;;;5019614;28;20396;-79
2022/11/08 02:18:16;;;;;;;4.97;4.57;;;8.20;99.90;;;;;;5018721;28;20516;-79
2022/11/08 02:21:19;;;;;;;7.30;4.80;;;8.20;99.90;;;;;;5019480;28;20392;-78
2022/11/08 02:24:09;;;;;;;7.00;4.30;;;8.00;99.90;;;;;;5018979;28;20399;-78
2022/11/08 02:26:55;;;;;;;8.00;5.13;;;7.90;99.90;;;;;;5018889;28;20482;-79
2022/11/08 02:29:39;;;;;;;6.10;5.20;;;7.80;99.90;;;;;;5018629;28;20414;-79
2022/11/08 02:32:24;;;;;;;7.03;5.30;;;7.80;99.90;;;;;;5018482;28;20382;-79
2022/11/08 02:35:14;;;;;;;5.37;4.87;;;7.90;99.90;;;;;;5018454;28;20484;-80
2022/11/08 02:37:58;;;;;;;6.33;5.80;;;8.00;99.90;;;;;;5018022;28;20363;-80
2022/11/08 02:40:47;;;;;;;7.30;5.37;;;8.00;99.90;;;;;;5018759;28;20365;-79
2022/11/08 02:43:31;;;;;;;5.13;4.60;;;7.90;99.90;;;;;;5019241;28;20804;-79
2022/11/08 02:46:16;;;;;;;6.60;4.97;;;7.90;99.90;;;;;;5019062;28;20425;-80
2022/11/08 02:49:00;;;;;;;7.53;4.33;;;7.90;99.90;;;;;;5018575;28;20835;-80
2022/11/08 02:51:44;;;;;;;7.13;4.13;;;7.90;99.90;;;;;;5019013;28;20510;-80
2022/11/08 02:54:28;;;;;;;6.43;4.93;;;8.00;99.90;;;;;;5019354;28;20388;-80
2022/11/08 02:57:13;;;;;;;6.93;5.27;;;8.00;99.90;;;;;;5019216;28;21078;-81
2022/11/08 02:59:57;;;;;;;4.90;4.50;;;7.90;99.90;;;;;;5019623;28;20406;-80
2022/11/08 03:02:41;;;;;;;7.53;5.33;;;7.90;99.90;;;;;;5019590;28;20446;-81
2022/11/08 03:05:26;;;;;;;10.50;4.77;;;7.80;99.90;;;;;;5019445;28;20421;-80
2022/11/08 03:08:11;;;;;;;3.87;3.53;;;7.80;99.90;;;;;;5019227;28;20484;-80
2022/11/08 03:10:58;;;;;;;7.57;5.70;;;7.80;99.90;;;;;;5019302;28;20365;-81
2022/11/08 03:13:42;;;;;;;7.87;5.00;;;7.80;99.90;;;;;;5019694;28;20366;-80
2022/11/08 03:16:26;;;;;;;4.77;4.37;;;7.80;99.90;;;;;;5019645;28;20404;-81
2022/11/08 03:19:11;;;;;;;4.80;3.93;;;7.70;99.90;;;;;;5019759;28;20753;-81
2022/11/08 03:21:55;;;;;;;5.73;4.90;;;7.60;99.90;;;;;;5018907;28;20407;-80
2022/11/08 03:24:39;;;;;;;6.30;5.10;;;7.60;99.90;;;;;;5019647;28;20852;-81
2022/11/08 03:27:23;;;;;;;8.00;4.63;;;7.60;99.90;;;;;;5019521;28;20752;-80
2022/11/08 03:30:08;;;;;;;5.53;4.83;;;7.60;99.90;;;;;;5004547;28;20383;-81
2022/11/08 03:32:52;;;;;;;8.70;4.10;;;7.60;99.90;;;;;;5004497;28;20707;-81
2022/11/08 03:35:38;;;;;;;5.57;3.70;;;7.60;99.90;;;;;;5019196;28;20354;-80
2022/11/08 03:38:22;;;;;;;4.80;3.93;;;7.70;99.90;;;;;;5019924;28;20380;-82
2022/11/08 03:41:06;;;;;;;5.00;4.37;;;7.70;99.90;;;;;;5019260;28;20417;-81
2022/11/08 03:43:50;;;;;;;3.30;3.00;;;7.70;99.90;;;;;;5019780;28;20392;-81
2022/11/08 03:46:34;;;;;;;4.77;4.37;;;7.80;99.90;;;;;;5019046;28;20494;-81
2022/11/08 03:49:18;;;;;;;5.50;3.90;;;7.80;99.90;;;;;;5019179;28;20454;-81
2022/11/08 03:52:02;;;;;;;4.40;4.00;;;7.70;99.90;;;;;;5022413;28;20506;-80
2022/11/08 03:54:46;;;;;;;6.07;4.53;;;7.60;99.90;;;;;;5008586;28;20805;-80
2022/11/08 03:57:31;;;;;;;4.37;4.07;;;7.60;99.90;;;;;;5023435;28;20478;-81
2022/11/08 04:00:17;;;;;;;4.00;3.47;;;7.60;99.90;;;;;;5008152;28;20387;-82
2022/11/08 04:03:03;;;;;;;5.10;3.87;;;7.50;99.90;;;;;;5023466;28;20374;-82
2022/11/08 04:05:47;;;;;;;4.87;4.10;;;7.40;99.90;;;;;;5023147;28;20497;-82
2022/11/08 04:08:31;;;;;;;4.27;3.70;;;7.40;99.90;;;;;;5029487;28;20408;-80
2022/11/08 04:17:14;;;;;;;4.37;4.07;;;7.30;99.90;;;;;;5032119;28;20382;-80
2022/11/08 04:22:53;;;;;;;5.13;4.57;;;7.40;99.90;;;;;;5021420;28;20378;-80
2022/11/08 04:25:37;;;;;;;7.57;4.67;;;7.40;99.90;;;;;;5021006;28;20459;-79
2022/11/08 04:28:25;;;;;;;5.40;4.80;;;7.30;99.90;;;;;;5021137;28;20462;-80
2022/11/08 04:31:13;;;;;;;4.97;3.73;;;7.30;99.90;;;;;;5020836;28;20371;-79
2022/11/08 04:33:57;;;;;;;21.93;4.97;;;7.10;99.90;;;;;;5021295;28;20503;-79
2022/11/08 04:36:41;;;;;;;6.23;3.80;;;7.00;99.90;;;;;;5020793;28;20369;-79
2022/11/08 04:39:25;;;;;;;8.93;4.23;;;7.00;99.90;;;;;;5020170;28;20399;-79
2022/11/08 04:42:09;;;;;;;4.30;3.90;;;7.00;99.90;;;;;;5005193;28;20826;-80
2022/11/08 04:44:53;;;;;;;6.53;4.30;;;7.10;99.90;;;;;;5020676;28;20415;-79
2022/11/08 04:47:38;;;;;;;9.13;4.27;;;7.10;99.90;;;;;;5044189;28;20469;-80
2022/11/08 04:50:22;;;;;;;6.43;4.40;;;7.20;99.90;;;;;;5031000;28;20474;-81
2022/11/08 04:53:06;;;;;;;5.30;3.33;;;7.20;99.90;;;;;;5021181;28;20382;-81
2022/11/08 04:55:50;;;;;;;5.07;3.90;;;7.10;99.90;;;;;;5020333;28;20384;-80
2022/11/08 04:58:38;;;;;;;5.83;4.53;;;7.10;99.90;;;;;;5029371;28;20773;-79
2022/11/08 05:01:26;;;;;;;6.90;4.57;;;7.10;99.90;;;;;;5050804;28;20381;-78
2022/11/08 05:04:10;;;;;;;4.97;3.97;;;7.20;99.90;;;;;;5046095;28;20373;-81
2022/11/08 05:06:54;;;;;;;4.93;4.53;;;7.10;99.90;;;;;;5042205;28;20461;-81
2022/11/08 05:09:38;;;;;;;4.53;4.07;;;7.10;99.90;;;;;;5012307;28;20373;-81
2022/11/08 05:12:23;;;;;;;4.20;3.80;;;7.00;99.90;;;;;;5026022;28;20442;-80
2022/11/08 05:15:07;;;;;;;5.03;4.00;;;7.00;99.90;;;;;;5041551;28;20395;-81
2022/11/08 05:17:52;;;;;;;4.87;4.30;;;7.00;99.90;;;;;;5026238;28;20401;-80
2022/11/08 05:23:33;;;;;;;4.13;3.80;;;7.00;99.90;;;;;;5041166;28;20759;-80
2022/11/08 05:26:19;;;;;;;5.47;4.77;;;7.00;99.90;;;;;;5040692;28;20471;-79
2022/11/08 05:29:04;;;;;;;4.53;3.93;;;7.10;99.90;;;;;;5025591;28;20400;-79
2022/11/08 05:31:48;;;;;;;5.90;3.73;;;7.20;99.90;;;;;;5040866;28;20387;-81
2022/11/08 05:34:32;;;;;;;6.13;4.30;;;7.20;99.90;;;;;;5041433;28;20379;-81
2022/11/08 05:37:16;;;;;;;7.57;4.90;;;7.20;99.90;;;;;;5040218;28;20488;-81
2022/11/08 05:40:00;;;;;;;5.17;4.67;;;7.30;99.90;;;;;;5040551;28;20767;-81
2022/11/08 05:42:45;;;;;;;4.03;3.73;;;7.30;99.90;;;;;;5041119;28;20460;-81
2022/11/08 05:45:29;;;;;;;12.43;4.60;;;7.30;99.90;;;;;;5040380;28;20421;-81
2022/11/08 05:48:13;;;;;;;7.20;4.60;;;7.30;99.90;;;;;;5041150;28;20394;-80
2022/11/08 05:50:57;;;;;;;5.40;4.20;;;7.20;99.90;;;;;;5040346;28;20428;-81
2022/11/08 05:53:41;;;;;;;3.87;3.23;;;7.10;99.90;;;;;;5021319;28;20452;-81
2022/11/08 05:56:25;;;;;;;5.07;4.10;;;7.10;99.90;;;;;;5040058;28;20398;-81
2022/11/08 05:59:09;;;;;;;6.00;4.47;;;7.10;99.90;;;;;;5024937;28;20410;-81
2022/11/08 06:01:53;;;;;;;6.57;3.47;;;7.20;99.90;;;;;;5040029;28;20501;-81
2022/11/08 06:04:37;;;;;;;12.70;4.63;;;7.30;99.90;;;;;;5040267;28;20398;-79
2022/11/08 06:07:21;;;;;;;5.23;3.90;;;7.50;99.90;;;;;;5039903;28;20546;-82
2022/11/08 06:10:06;;;;;;;5.53;4.00;;;7.50;99.90;;;;;;5021093;28;20435;-81
2022/11/08 06:12:51;;;;;;;6.47;3.93;;;7.70;99.90;;;;;;5023759;28;20432;-81
2022/11/08 06:15:34;;;;;;;4.13;3.70;;;7.80;99.90;;;;;;5040424;28;20459;-80
2022/11/08 06:18:18;;;;;;;6.57;5.20;;;7.90;99.90;;;;;;5037107;28;20835;-79
2022/11/08 06:21:05;;;;;;;4.13;3.83;;;8.00;99.90;;;;;;5037519;28;20405;-79
2022/11/08 06:23:52;;;;;;;7.00;4.23;;;8.10;99.90;;;;;;5037718;28;20442;-81
2022/11/08 06:26:38;;;;;;;15.00;4.60;;;8.10;99.90;;;;;;5027330;28;20473;-79
2022/11/08 06:29:22;;;;;;;4.03;3.70;;;8.20;99.90;;;;;;5023145;28;20446;-79
2022/11/08 06:32:08;;;;;;;9.97;4.53;;;8.30;99.90;;;;;;5039131;28;20426;-81
2022/11/08 06:34:52;;;;;;;5.70;4.77;;;8.30;99.90;;;;;;5022376;28;20462;-78
2022/11/08 06:37:36;;;;;;;6.70;4.60;;;8.40;99.90;;;;;;5035385;28;20462;-81
2022/11/08 06:40:21;;;;;;;5.73;3.83;;;8.40;99.90;;;;;;5014470;28;20434;-82
2022/11/08 06:43:05;;;;;;;10.90;3.60;;;8.50;99.90;;;;;;5018973;28;20492;-80
2022/11/08 06:45:49;;;;;;;6.70;3.83;;;8.50;99.90;;;;;;5023947;28;20540;-81
2022/11/08 06:48:33;;;;;;;4.43;3.97;;;8.50;99.90;;;;;;5028897;28;20405;-80
2022/11/08 06:51:18;;;;;;;4.77;4.10;;;8.50;99.90;;;;;;5035322;28;20563;-79
2022/11/08 06:54:05;;;;;;;5.13;4.03;;;8.50;99.90;;;;;;5014831;28;20469;-80
2022/11/08 06:56:50;;;;;;;4.40;4.00;;;8.50;99.90;;;;;;5028954;28;20460;-80
2022/11/08 06:59:38;;;;;;;4.67;3.70;;;8.50;99.90;;;;;;5039310;28;20916;-81
2022/11/08 07:02:24;;;;;;;6.03;3.90;;;8.50;99.90;;;;;;5026312;28;20764;-78
2022/11/08 07:05:31;;;;;;;4.83;3.43;;;8.50;99.90;;;;;;5003487;28;20437;-82
2022/11/08 07:08:20;;;;;;;9.60;4.50;;;8.50;99.90;;;;;;4984815;28;20436;-81
2022/11/08 07:11:09;;;;;;;5.97;4.17;;;8.60;99.90;;;;;;4983703;28;20468;-81
2022/11/08 07:13:57;;;;;;;4.43;4.00;;;8.60;99.90;;;;;;4934379;28;20415;-82
2022/11/08 07:16:44;;;;;;;9.33;4.30;;;8.60;99.90;;;;;;4989274;28;20503;-79
2022/11/08 07:19:30;;;;;;;5.90;3.90;;;8.70;99.90;;;;;;4982052;28;20485;-79
2022/11/08 07:22:15;;;;;;;4.70;4.30;;;8.70;99.90;;;;;;4987198;28;20438;-80
2022/11/08 07:25:00;;;;;;;4.90;4.13;;;8.70;99.90;;;;;;4944471;28;20537;-81
2022/11/08 07:27:47;;;;;;;4.47;3.67;;;8.80;99.90;;;;;;4963228;28;20856;-80
2022/11/08 07:30:35;;;;;;;8.13;4.30;;;8.90;99.90;;;;;;4977978;28;20923;-81
2022/11/08 07:33:21;;;;;;;4.40;3.97;;;9.10;99.90;;;;;;4960699;28;20445;-81
2022/11/08 07:36:07;;;;;;;5.43;4.77;;;9.30;99.90;;;;;;4942041;28;20467;-80
2022/11/08 07:38:54;;;;;;;4.50;4.07;;;9.60;99.90;;;;;;4957916;28;20441;-81
2022/11/08 07:42:01;;;;;;;6.87;4.67;;;9.80;99.90;;;;;;4932367;28;20482;-82
2022/11/08 07:44:46;;;;;;;10.53;5.37;;;10.10;99.90;;;;;;4950878;28;20432;-81
2022/11/08 07:47:30;;;;;;;6.57;3.97;;;10.20;99.90;;;;;;4928862;29;20448;-82
2022/11/08 07:50:15;;;;;;;5.60;3.90;;;10.10;99.90;;;;;;4921366;29;20469;-79
2022/11/08 07:53:00;;;;;;;6.40;4.37;;;10.20;99.90;;;;;;4931013;29;20438;-80
2022/11/08 07:55:47;;;;;;;12.00;4.00;;;10.40;99.90;;;;;;4910297;29;20451;-81
2022/11/08 07:58:34;;;;;;;9.43;3.80;;;10.40;99.90;;;;;;4920835;29;20467;-81
2022/11/08 08:01:21;;;;;;;6.73;3.90;;;10.50;99.90;;;;;;4849411;29;20596;-82
2022/11/08 08:04:08;;;;;;;8.83;4.90;;;10.90;99.90;;;;;;4826527;29;20434;-82
2022/11/08 08:06:52;;;;;;;8.13;4.47;;;11.00;99.90;;;;;;4823327;29;20680;-81
2022/11/08 08:09:37;;;;;;;4.80;4.23;;;11.00;99.90;;;;;;4836598;29;20492;-81
2022/11/08 08:12:21;;;;;;;5.13;4.30;;;11.40;99.90;;;;;;4848124;29;20413;-82
2022/11/08 08:15:06;;;;;;;15.80;5.60;;;11.70;99.90;;;;;;4834947;29;20418;-80
2022/11/08 08:17:52;;;;;;;5.93;4.40;;;12.00;99.90;;;;;;4815423;29;20529;-81
2022/11/08 08:20:37;;;;;;;4.83;4.33;;;12.10;99.90;;;;;;4816471;29;20738;-80
2022/11/08 08:23:22;;;;;;;5.77;3.83;;;12.40;99.90;;;;;;4837897;29;20470;-81
2022/11/08 08:26:07;;;;;;;8.90;4.00;;;12.60;99.90;;;;;;4814250;29;20480;-81
2022/11/08 08:28:54;;;;;;;5.07;4.57;;;12.90;99.90;;;;;;4818023;29;20456;-79
2022/11/08 08:31:38;;;;;;;4.93;3.67;;;12.60;99.90;;;;;;4847456;29;20520;-82
2022/11/08 08:34:24;;;;;;;4.43;3.50;;;12.50;99.90;;;;;;4870425;29;20461;-81
2022/11/08 08:37:14;;;;;;;3.43;2.60;;;12.60;99.90;;;;;;4882675;29;20596;-81
2022/11/08 08:40:15;;;;;;;5.77;4.17;;;12.50;99.90;;;;;;4881305;29;20526;-82
2022/11/08 08:43:03;;;;;;;11.73;3.67;;;12.40;99.90;;;;;;4889806;29;20506;-83
2022/11/08 08:45:48;;;;;;;12.03;4.53;;;12.20;99.90;;;;;;4888701;29;20464;-79
2022/11/08 08:48:32;;;;;;;14.23;4.17;;;12.10;99.90;;;;;;4882410;29;20445;-81
2022/11/08 08:51:16;;;;;;;3.70;3.40;;;11.70;99.90;;;;;;4895780;29;20487;-81
2022/11/08 08:54:01;;;;;;;4.93;4.30;;;11.30;99.90;;;;;;4915851;29;20535;-79
2022/11/08 08:56:45;;;;;;;6.30;4.60;;;11.60;99.90;;;;;;4922500;28;20497;-80
2022/11/08 08:59:29;;;;;;;7.40;4.40;;;11.80;99.90;;;;;;4936327;28;20478;-79
2022/11/08 09:02:14;;;;;;;7.17;4.80;;;11.90;99.90;;;;;;4951393;28;20850;-80
2022/11/08 09:04:58;;;;;;;11.33;5.10;;;11.90;99.90;;;;;;4954660;29;20474;-80
2022/11/08 09:07:44;;;;;;;7.57;5.23;;;11.70;99.90;;;;;;4954055;28;20504;-81
2022/11/08 09:10:32;;;;;;;6.43;3.87;;;11.80;99.90;;;;;;4910002;29;20505;-80
2022/11/08 09:13:17;;;;;;;6.63;3.73;;;12.10;99.90;;;;;;4901500;29;20516;-80
2022/11/08 09:16:02;;;;;;;3.10;2.90;;;12.60;99.90;;;;;;4883490;29;20505;-79
2022/11/08 09:18:47;;;;;;;12.37;4.00;;;12.50;99.90;;;;;;4873515;29;20456;-80
2022/11/08 09:21:31;;;;;;;5.53;3.77;;;13.00;99.90;;;;;;4891650;29;20594;-81
2022/11/08 09:24:19;;;;;;;5.77;3.70;;;13.00;99.90;;;;;;4899680;29;20579;-81
2022/11/08 09:27:03;;;;;;;3.27;2.97;;;13.40;99.90;;;;;;4870955;29;20539;-82
2022/11/08 09:29:53;;;;;;;4.20;3.20;;;13.10;99.90;;;;;;4918882;28;20461;-81
2022/11/08 09:33:04;;;;;;;5.30;4.80;;;13.50;99.90;;;;;;4963110;28;20426;-81
2022/11/08 09:35:52;;;;;;;9.00;3.73;;;14.80;99.90;;;;;;4936367;28;20525;-80
2022/11/08 09:38:38;;;;;;;5.53;3.20;;;15.20;99.90;;;;;;4938946;28;20424;-81
2022/11/08 09:42:04;;;;;;;4.53;4.00;;;15.70;99.90;;;;;;4949418;28;20493;-82
2022/11/08 09:45:06;;;;;;;6.30;3.00;;;17.00;99.90;;;;;;4994549;28;20483;-80
2022/11/08 09:47:59;;;;;;;8.00;3.60;;;16.20;99.90;;;;;;4994775;28;20439;-79
2022/11/08 09:50:45;;;;;;;2.90;2.70;;;16.40;99.90;;;;;;5003794;28;20466;-81
2022/11/08 09:53:49;;;;;;;3.93;3.37;;;16.60;99.90;;;;;;5003797;28;20494;-80
2022/11/08 09:56:54;;;;;;;3.33;3.03;;;17.40;99.90;;;;;;5008932;28;20600;-80
2022/11/08 09:59:43;;;;;;;3.80;3.20;;;16.40;99.90;;;;;;5004141;28;20451;-81
2022/11/08 10:02:29;;;;;;;3.90;3.50;;;17.60;99.90;;;;;;4993827;28;20431;-79
2022/11/08 10:05:18;;;;;;;5.27;3.13;;;18.00;99.90;;;;;;4993413;28;20435;-81
2022/11/08 10:08:09;;;;;;;4.00;2.63;;;17.40;99.90;;;;;;5007918;28;20737;-82
2022/11/08 10:11:05;;;;;;;3.90;3.50;;;16.30;99.90;;;;;;5004333;28;20427;-81
2022/11/08 10:14:14;;;;;;;6.63;3.23;;;15.50;99.90;;;;;;4994756;28;20482;-81
2022/11/08 10:17:31;;;;;;;5.00;2.83;;;15.50;99.90;;;;;;5003935;28;20487;-81
2022/11/08 10:20:42;;;;;;;6.20;3.60;;;15.90;99.90;;;;;;4992574;28;20435;-82
2022/11/08 10:23:41;;;;;;;3.03;2.73;;;16.80;99.90;;;;;;5007455;28;20474;-81
2022/11/08 10:26:34;;;;;;;5.37;3.57;;;18.20;99.90;;;;;;5026248;28;20489;-82
2022/11/08 10:29:24;;;;;;;9.07;4.07;;;19.50;99.90;;;;;;5028321;28;20458;-82
2022/11/08 10:32:17;;;;;;;4.20;3.30;;;19.80;99.90;;;;;;5030361;28;20450;-82
2022/11/08 10:35:18;;;;;;;7.47;3.63;;;22.50;99.90;;;;;;5020552;28;20482;-83
2022/11/08 10:38:17;;;;;;;3.17;2.87;;;23.20;99.90;;;;;;5040549;28;20438;-82
2022/11/08 10:41:19;;;;;;;10.43;3.57;;;23.80;97.30;;;;;;5033573;28;20442;-79
2022/11/08 10:44:09;;;;;;;2.67;2.47;;;22.30;95.00;;;;;;5039770;28;20431;-82
2022/11/08 10:47:01;;;;;;;2.70;2.50;;;22.10;97.90;;;;;;5032016;28;20530;-83
2022/11/08 10:49:46;;;;;;;4.80;3.23;;;21.90;98.00;;;;;;5026471;28;20423;-81
2022/11/08 10:52:39;;;;;;;2.83;2.63;;;20.70;95.80;;;;;;5042973;28;20497;-82
2022/11/08 10:55:29;;;;;;;5.20;3.17;;;20.10;99.90;;;;;;5036353;28;20832;-82
2022/11/08 10:58:31;;;;;;;3.60;3.30;;;20.80;99.80;;;;;;5035123;28;20527;-79
2022/11/08 11:01:19;;;;;;;6.80;3.03;;;21.30;98.30;;;;;;5035352;28;20489;-81
2022/11/08 11:04:24;;;;;;;5.57;3.30;;;21.10;96.20;;;;;;5032501;28;20565;-81
2022/11/08 11:07:34;;;;;;;7.37;2.67;;;20.30;97.40;;;;;;5026409;28;20780;-82
2022/11/08 11:10:24;;;;;;;3.30;2.57;;;19.80;99.90;;;;;;5037264;28;20418;-81
2022/11/08 11:13:22;;;;;;;4.67;3.47;;;21.30;98.50;;;;;;5029429;28;20422;-81
2022/11/08 11:16:12;;;;;;;2.60;2.40;;;21.60;95.30;;;;;;5034768;28;20434;-82
2022/11/08 11:19:02;;;;;;;3.23;2.93;;;20.50;96.20;;;;;;5032620;28;20450;-82
2022/11/08 11:22:08;;;;;;;3.50;3.20;;;21.50;94.80;;;;;;5034022;28;20498;-81
2022/11/08 11:24:53;;;;;;;3.47;3.17;;;21.00;93.80;;;;;;5037239;28;21134;-82
2022/11/08 11:27:40;;;;;;;3.43;2.80;;;21.10;96.20;;;;;;5038696;28;20473;-80
2022/11/08 11:30:29;;;;;;;2.30;2.10;;;21.80;93.90;;;;;;5040571;28;20571;-81
2022/11/08 11:33:23;;;;;;;3.50;3.10;;;21.00;94.10;;;;;;5035549;28;20434;-82
2022/11/08 11:36:14;;;;;;;4.33;3.13;;;21.60;93.30;;;;;;5028855;28;20457;-80
2022/11/08 11:39:12;;;;;;;9.13;2.60;;;21.80;92.40;;;;;;5032541;28;20434;-82
2022/11/08 11:42:05;;;;;;;2.67;2.47;;;20.70;92.90;;;;;;5046012;28;20450;-80
2022/11/08 11:45:15;;;;;;;2.20;2.00;;;20.70;93.90;;;;;;5029898;28;20546;-81
2022/11/08 11:48:05;;;;;;;4.00;2.40;;;22.10;93.90;;;;;;5034973;28;20514;-80
2022/11/08 11:50:50;;;;;;;3.63;2.90;;;22.90;90.70;;;;;;5030061;28;20580;-79
2022/11/08 11:53:36;;;;;;;2.40;2.20;;;23.20;90.50;;;;;;5022977;28;20457;-81
2022/11/08 11:56:40;;;;;;;3.20;2.20;;;22.70;90.50;;;;;;5029560;28;20426;-80
2022/11/08 11:59:45;;;;;;;5.20;4.70;;;22.60;89.70;;;;;;5009669;28;20439;-80
2022/11/08 12:02:52;;;;;;;2.80;1.73;;;23.80;87.10;;;;;;5022324;28;20474;-80
2022/11/08 12:06:10;;;;;;;3.87;2.47;;;24.40;81.50;;;;;;5028136;28;21001;-79
2022/11/08 12:09:09;;;;;;;9.83;2.70;;;22.80;82.20;;;;;;5024276;28;20425;-79
2022/11/08 12:12:07;;;;;;;2.37;2.17;;;22.50;83.40;;;;;;5015250;28;20422;-81
2022/11/08 12:15:05;;;;;;;3.33;2.53;;;22.30;83.50;;;;;;5012270;28;20477;-82
2022/11/08 12:18:14;;;;;;;3.40;2.53;;;22.60;84.20;;;;;;5027238;28;20426;-80
2022/11/08 12:21:13;;;;;;;3.50;2.07;;;23.30;80.10;;;;;;5020247;28;20430;-82
2022/11/08 12:24:34;;;;;;;3.23;2.30;;;23.40;78.50;;;;;;5003630;28;20441;-80
2022/11/08 12:27:36;;;;;;;4.43;3.07;;;22.50;78.50;;;;;;5025608;28;20450;-82
2022/11/08 12:30:29;;;;;;;3.50;2.30;;;22.20;77.80;;;;;;5028209;28;20437;-83
2022/11/08 12:33:26;;;;;;;2.53;2.33;;;22.50;79.50;;;;;;5029205;28;20837;-81
2022/11/08 12:36:26;;;;;;;2.43;2.23;;;21.50;80.00;;;;;;5010901;28;21015;-83
2022/11/08 12:39:29;;;;;;;4.43;2.80;;;22.20;81.10;;;;;;5010122;28;20428;-81
2022/11/08 12:42:45;;;;;;;2.40;2.20;;;22.40;81.10;;;;;;5029482;28;20977;-83
2022/11/08 12:45:48;;;;;;;2.23;2.07;;;22.90;80.00;;;;;;5027719;28;20441;-80
2022/11/08 12:49:05;;;;;;;2.70;2.17;;;24.00;76.20;;;;;;4992196;28;20473;-79
2022/11/08 12:52:07;;;;;;;2.10;2.00;;;24.10;74.60;;;;;;5037572;28;20466;-82
2022/11/08 12:54:58;;;;;;;3.10;2.80;;;25.20;73.60;;;;;;5033572;28;20433;-81
2022/11/08 12:57:44;;;;;;;4.20;2.20;;;23.40;72.20;;;;;;5037002;28;21099;-80
2022/11/08 13:00:29;;;;;;;2.30;2.07;;;22.30;74.60;;;;;;5028759;28;20930;-82
2022/11/08 13:03:44;;;;;;;2.50;2.30;;;22.10;77.80;;;;;;5030725;28;20587;-81
2022/11/08 13:06:41;;;;;;;3.77;3.43;;;20.40;79.40;;;;;;5026857;28;20431;-82
2022/11/08 13:09:42;;;;;;;3.50;2.50;;;20.00;83.60;;;;;;5031263;28;20538;-80
2022/11/08 13:12:59;;;;;;;3.30;3.00;;;20.10;85.20;;;;;;5029082;28;20630;-83
2022/11/08 13:16:14;;;;;;;5.70;3.90;;;19.30;87.20;;;;;;5031368;28;20462;-82
2022/11/08 13:19:00;;;;;;;2.77;2.50;;;18.60;90.10;;;;;;5037481;28;20458;-79
2022/11/08 13:21:44;;;;;;;2.80;2.60;;;18.70;91.20;;;;;;5051547;28;20433;-81
2022/11/08 13:24:32;;;;;;;6.03;4.13;;;18.60;91.90;;;;;;5035186;28;20443;-79
2022/11/08 13:27:35;;;;;;;3.85;3.08;;;18.60;92.60;;;;;;5043510;28;20428;-79
2022/11/08 13:30:34;;;;;;;2.50;2.30;;;18.40;93.40;;;;;;5033406;28;20183;-79
2022/11/08 13:33:27;;;;;;;3.37;2.80;;;17.60;95.20;;;;;;5030877;28;20496;-79
2022/11/08 13:36:30;;;;;;;4.80;2.60;;;17.60;97.30;;;;;;5028505;28;20489;-81
2022/11/08 13:39:32;;;;;;;3.47;3.10;;;17.80;97.90;;;;;;5029242;28;20784;-81
2022/11/08 13:42:38;;;;;;;5.13;2.93;;;18.20;98.40;;;;;;5031352;28;20487;-81
2022/11/08 13:45:32;;;;;;;2.57;2.37;;;18.40;98.20;;;;;;5032548;28;20913;-82
2022/11/08 13:48:33;;;;;;;3.03;2.60;;;18.80;98.50;;;;;;5044620;28;21025;-82
2022/11/08 13:51:29;;;;;;;3.43;3.13;;;18.90;97.70;;;;;;5026923;28;20488;-82
2022/11/08 13:54:44;;;;;;;4.60;3.23;;;19.50;97.30;;;;;;5024595;28;20473;-82
2022/11/08 13:57:58;;;;;;;4.33;3.43;;;20.30;95.20;;;;;;5029196;28;20481;-82
2022/11/08 14:00:45;;;;;;;4.13;3.20;;;19.60;95.90;;;;;;5042068;28;20430;-82
2022/11/08 14:03:53;;;;;;;4.40;2.60;;;19.10;96.50;;;;;;5036023;28;20799;-82
2022/11/08 14:07:04;;;;;;;2.60;2.40;;;18.70;97.80;;;;;;5024557;28;20453;-80
2022/11/08 14:10:10;;;;;;;2.77;2.50;;;18.20;98.70;;;;;;5029147;28;21401;-80
2022/11/08 14:13:04;;;;;;;5.03;3.90;;;17.80;99.90;;;;;;5033153;28;20449;-82
2022/11/08 14:15:55;;;;;;;6.20;3.97;;;17.50;99.90;;;;;;5029618;28;20477;-82
2022/11/08 14:18:40;;;;;;;2.80;2.27;;;17.60;99.90;;;;;;5042632;28;20438;-81
2022/11/08 14:21:24;;;;;;;2.97;2.43;;;17.40;99.90;;;;;;5028314;28;20431;-82
2022/11/08 14:24:17;;;;;;;3.57;2.27;;;17.20;99.90;;;;;;5031531;28;20457;-81
2022/11/08 14:27:02;;;;;;;6.20;2.77;;;17.00;99.90;;;;;;5032342;28;20446;-81
2022/11/08 14:29:58;;;;;;;7.93;3.00;;;17.20;99.90;;;;;;5016181;28;20439;-81
2022/11/08 14:32:43;;;;;;;4.37;3.53;;;17.20;99.90;;;;;;5031117;28;20515;-81
2022/11/08 14:35:27;;;;;;;2.37;2.17;;;17.30;99.90;;;;;;5031127;28;20485;-79
2022/11/08 14:38:14;;;;;;;3.27;2.80;;;17.30;99.90;;;;;;5022665;28;20561;-80
2022/11/08 14:41:03;;;;;;;2.47;2.20;;;17.10;99.90;;;;;;5029982;28;20436;-78
2022/11/08 14:43:48;;;;;;;2.27;2.07;;;17.00;99.90;;;;;;5034679;28;20542;-80
2022/11/08 14:46:38;;;;;;;3.73;3.33;;;16.90;99.90;;;;;;5037123;28;20417;-79
2022/11/08 14:49:37;;;;;;;2.40;2.20;;;16.80;99.90;;;;;;5037296;28;20426;-80
2022/11/08 14:52:27;;;;;;;3.23;2.23;;;16.60;99.90;;;;;;5031968;28;20582;-80
2022/11/08 14:55:14;;;;;;;3.30;2.33;;;16.50;99.90;;;;;;5045087;28;20485;-81
2022/11/08 14:58:12;;;;;;;3.40;2.50;;;16.50;99.90;;;;;;5040830;28;20932;-79
2022/11/08 15:00:58;;;;;;;4.40;2.70;;;16.40;99.90;;;;;;5018287;28;20497;-81
2022/11/08 15:03:47;;;;;;;2.17;2.00;;;16.20;99.90;;;;;;5030458;28;20425;-79
2022/11/08 15:06:34;;;;;;;1.90;1.80;;;16.00;99.90;;;;;;5033527;28;20977;-81
2022/11/08 15:09:31;;;;;;;3.33;2.10;;;16.00;99.90;;;;;;5031539;28;20825;-81